createdAt,value
2017-08-22T00:01:47.728Z,17.10
2017-08-22T00:04:15.375Z,17.20
2017-08-22T00:06:42.967Z,17.20
2017-08-22T00:09:10.614Z,17.20
2017-08-22T00:11:38.226Z,17.10
2017-08-22T00:14:05.885Z,17.10
2017-08-22T00:16:33.499Z,17.00
2017-08-22T00:19:01.153Z,17.10
2017-08-22T00:21:28.785Z,17.10
2017-08-22T00:23:56.405Z,17.00
2017-08-22T00:26:24.058Z,17.10
2017-08-22T00:28:51.680Z,17.10
2017-08-22T00:31:19.309Z,17.00
2017-08-22T00:33:46.901Z,17.00
2017-08-22T00:36:14.545Z,17.10
2017-08-22T00:38:42.148Z,17.00
2017-08-22T00:41:09.797Z,17.00
2017-08-22T00:43:37.383Z,16.90
2017-08-22T00:46:05.037Z,17.00
2017-08-22T00:48:32.638Z,17.00
2017-08-22T00:51:00.266Z,17.00
2017-08-22T00:53:27.869Z,17.00
2017-08-22T00:55:55.507Z,17.00
2017-08-22T00:58:23.121Z,17.10
2017-08-22T01:00:50.664Z,17.10
2017-08-22T01:03:18.256Z,17.10
2017-08-22T01:05:45.887Z,17.10
2017-08-22T01:08:13.433Z,17.00
2017-08-22T01:10:41.009Z,17.00
2017-08-22T01:13:08.549Z,17.00
2017-08-22T01:15:36.128Z,17.00
2017-08-22T01:18:03.672Z,16.90
2017-08-22T01:20:31.247Z,16.90
2017-08-22T01:22:58.794Z,17.00
2017-08-22T01:25:26.426Z,17.00
2017-08-22T01:27:53.965Z,17.10
2017-08-22T01:30:21.640Z,17.10
2017-08-22T01:32:49.204Z,17.10
2017-08-22T01:35:16.852Z,17.00
2017-08-22T01:37:44.513Z,17.00
2017-08-22T01:40:12.188Z,17.00
2017-08-22T01:42:39.841Z,17.10
2017-08-22T01:45:07.513Z,17.10
2017-08-22T01:47:35.073Z,17.10
2017-08-22T01:50:02.739Z,17.10
2017-08-22T01:52:30.264Z,17.00
2017-08-22T01:54:57.927Z,16.90
2017-08-22T01:57:25.535Z,17.00
2017-08-22T01:59:53.198Z,16.90
2017-08-22T02:02:20.757Z,17.00
2017-08-22T02:04:48.350Z,16.90
2017-08-22T02:07:15.930Z,16.90
2017-08-22T02:09:43.556Z,16.90
2017-08-22T02:12:11.226Z,16.80
2017-08-22T02:14:38.861Z,16.90
2017-08-22T02:17:06.544Z,16.90
2017-08-22T02:19:34.881Z,16.90
2017-08-22T02:22:02.554Z,16.80
2017-08-22T02:24:30.117Z,16.80
2017-08-22T02:26:57.780Z,16.80
2017-08-22T02:29:25.399Z,16.90
2017-08-22T02:31:53.020Z,16.90
2017-08-22T02:34:20.606Z,16.90
2017-08-22T02:36:48.180Z,17.00
2017-08-22T02:39:15.786Z,16.90
2017-08-22T02:41:43.606Z,16.90
2017-08-22T02:44:11.225Z,17.00
2017-08-22T02:46:38.781Z,17.00
2017-08-22T02:49:06.461Z,17.00
2017-08-22T02:51:34.569Z,16.90
2017-08-22T02:54:02.199Z,16.80
2017-08-22T02:56:29.748Z,16.80
2017-08-22T02:58:57.324Z,16.80
2017-08-22T03:01:24.895Z,16.80
2017-08-22T03:03:52.472Z,16.80
2017-08-22T03:06:20.026Z,16.80
2017-08-22T03:08:47.596Z,16.80
2017-08-22T03:11:15.187Z,16.70
2017-08-22T03:13:42.778Z,16.70
2017-08-22T03:16:10.315Z,16.70
2017-08-22T03:18:37.973Z,16.70
2017-08-22T03:21:05.560Z,16.70
2017-08-22T03:23:33.206Z,16.70
2017-08-22T03:26:00.874Z,16.70
2017-08-22T03:28:28.493Z,16.60
2017-08-22T03:30:56.107Z,16.60
2017-08-22T03:33:23.687Z,16.60
2017-08-22T03:35:51.309Z,16.60
2017-08-22T03:38:18.845Z,16.60
2017-08-22T03:40:46.420Z,16.70
2017-08-22T03:43:13.958Z,16.60
2017-08-22T03:45:41.706Z,16.60
2017-08-22T03:48:09.315Z,16.60
2017-08-22T03:50:37.157Z,16.80
2017-08-22T03:53:04.971Z,16.80
2017-08-22T03:55:32.612Z,16.70
2017-08-22T03:58:00.321Z,16.70
2017-08-22T04:00:28.093Z,16.70
2017-08-22T04:02:55.843Z,16.70
2017-08-22T04:05:23.523Z,16.70
2017-08-22T04:07:51.138Z,16.80
2017-08-22T04:10:18.727Z,16.70
2017-08-22T04:12:46.340Z,16.70
2017-08-22T04:15:14.106Z,16.60
2017-08-22T04:17:41.735Z,16.60
2017-08-22T04:20:09.681Z,16.60
2017-08-22T04:22:37.292Z,16.60
2017-08-22T04:25:04.876Z,16.60
2017-08-22T04:27:32.489Z,16.70
2017-08-22T04:30:00.176Z,16.70
2017-08-22T04:32:27.795Z,16.70
2017-08-22T04:34:55.464Z,16.70
2017-08-22T04:37:23.065Z,16.70
2017-08-22T04:39:50.798Z,16.60
2017-08-22T04:42:18.414Z,16.70
2017-08-22T04:44:46.062Z,16.60
2017-08-22T04:47:13.661Z,16.60
2017-08-22T04:49:41.348Z,16.50
2017-08-22T04:52:08.965Z,16.60
2017-08-22T04:54:36.632Z,16.60
2017-08-22T04:57:04.293Z,16.60
2017-08-22T04:59:31.979Z,16.60
2017-08-22T05:01:59.590Z,16.50
2017-08-22T05:04:27.199Z,16.70
2017-08-22T05:06:54.861Z,16.60
2017-08-22T05:09:22.448Z,16.60
2017-08-22T05:11:50.078Z,16.70
2017-08-22T05:14:17.677Z,16.70
2017-08-22T05:16:45.294Z,16.80
2017-08-22T05:19:12.892Z,16.80
2017-08-22T05:21:40.547Z,16.70
2017-08-22T05:24:08.116Z,16.70
2017-08-22T05:26:35.720Z,16.70
2017-08-22T05:29:03.336Z,16.70
2017-08-22T05:31:30.996Z,16.80
2017-08-22T05:33:58.606Z,16.80
2017-08-22T05:36:26.269Z,16.80
2017-08-22T05:38:53.889Z,16.80
2017-08-22T05:41:21.579Z,17.00
2017-08-22T05:43:49.196Z,17.00
2017-08-22T05:46:16.795Z,17.00
2017-08-22T05:48:44.471Z,17.10
2017-08-22T05:51:12.101Z,17.20
2017-08-22T05:53:39.754Z,17.10
2017-08-22T05:56:07.371Z,17.30
2017-08-22T05:58:35.035Z,17.30
2017-08-22T06:01:02.644Z,17.40
2017-08-22T06:03:30.303Z,17.40
2017-08-22T06:05:57.926Z,17.50
2017-08-22T06:08:25.588Z,17.60
2017-08-22T06:10:53.206Z,17.60
2017-08-22T06:13:20.851Z,17.70
2017-08-22T06:15:48.455Z,17.70
2017-08-22T06:18:16.138Z,17.80
2017-08-22T06:20:43.756Z,17.80
2017-08-22T06:23:11.407Z,18.00
2017-08-22T06:25:39.896Z,18.00
2017-08-22T06:28:07.598Z,18.10
2017-08-22T06:30:35.229Z,18.20
2017-08-22T06:33:02.867Z,18.20
2017-08-22T06:35:30.587Z,18.30
2017-08-22T06:37:58.346Z,18.30
2017-08-22T06:40:25.917Z,18.40
2017-08-22T06:42:53.622Z,18.60
2017-08-22T06:45:21.234Z,18.70
2017-08-22T06:47:48.815Z,18.70
2017-08-22T06:50:16.452Z,18.60
2017-08-22T06:52:44.535Z,18.70
2017-08-22T06:55:12.197Z,18.80
2017-08-22T06:57:39.820Z,18.80
2017-08-22T07:00:07.498Z,18.90
2017-08-22T07:02:35.065Z,18.90
2017-08-22T07:05:02.701Z,18.90
2017-08-22T07:07:30.267Z,19.00
2017-08-22T07:09:57.959Z,19.10
2017-08-22T07:12:25.515Z,19.20
2017-08-22T07:14:53.186Z,19.10
2017-08-22T07:17:20.744Z,19.00
2017-08-22T07:19:48.324Z,19.10
2017-08-22T07:22:15.967Z,19.20
2017-08-22T07:24:43.544Z,19.30
2017-08-22T07:27:11.132Z,19.30
2017-08-22T07:29:38.712Z,19.40
2017-08-22T07:32:06.364Z,19.40
2017-08-22T07:34:33.969Z,19.60
2017-08-22T07:37:01.505Z,19.70
2017-08-22T07:39:29.102Z,19.70
2017-08-22T07:41:56.654Z,19.70
2017-08-22T07:44:24.231Z,19.80
2017-08-22T07:46:51.779Z,19.90
2017-08-22T07:49:19.461Z,19.90
2017-08-22T07:51:47.055Z,20.10
2017-08-22T07:54:14.669Z,20.30
2017-08-22T07:56:42.342Z,20.30
2017-08-22T07:59:10.022Z,20.30
2017-08-22T08:01:37.588Z,20.40
2017-08-22T08:04:05.197Z,20.30
2017-08-22T08:06:32.871Z,20.20
2017-08-22T08:09:00.490Z,20.20
2017-08-22T08:11:28.223Z,20.50
2017-08-22T08:13:55.848Z,20.60
2017-08-22T08:16:23.493Z,20.50
2017-08-22T08:18:51.073Z,20.70
2017-08-22T08:21:18.733Z,20.70
2017-08-22T08:23:46.369Z,20.60
2017-08-22T08:26:14.044Z,20.70
2017-08-22T08:28:41.694Z,20.90
2017-08-22T08:31:09.321Z,21.10
2017-08-22T08:33:36.934Z,21.00
2017-08-22T08:36:04.578Z,20.90
2017-08-22T08:38:32.120Z,20.90
2017-08-22T08:40:59.792Z,20.90
2017-08-22T08:43:27.394Z,21.00
2017-08-22T08:45:54.990Z,20.90
2017-08-22T08:48:22.583Z,20.90
2017-08-22T08:50:50.196Z,20.90
2017-08-22T08:53:17.833Z,20.90
2017-08-22T08:55:45.521Z,20.90
2017-08-22T08:58:13.130Z,20.90
2017-08-22T09:00:40.717Z,20.90
2017-08-22T09:03:08.294Z,20.80
2017-08-22T09:05:35.989Z,20.80
2017-08-22T09:08:03.603Z,20.80
2017-08-22T09:10:31.349Z,20.90
2017-08-22T09:12:58.896Z,21.00
2017-08-22T09:15:26.471Z,20.90
2017-08-22T09:17:54.087Z,21.00
2017-08-22T09:20:21.687Z,21.20
2017-08-22T09:22:49.248Z,21.20
2017-08-22T09:25:16.827Z,21.30
2017-08-22T09:27:44.373Z,21.40
2017-08-22T09:30:11.952Z,21.50
2017-08-22T09:32:39.513Z,21.70
2017-08-22T09:35:07.221Z,21.70
2017-08-22T09:37:34.841Z,21.80
2017-08-22T09:40:02.526Z,21.90
2017-08-22T09:42:30.109Z,21.80
2017-08-22T09:44:57.720Z,21.90
2017-08-22T09:47:25.340Z,22.00
2017-08-22T09:49:53.080Z,22.10
2017-08-22T09:52:20.624Z,22.10
2017-08-22T09:54:48.205Z,22.20
2017-08-22T09:57:15.836Z,22.40
2017-08-22T09:59:43.508Z,22.50
2017-08-22T10:02:11.136Z,22.50
2017-08-22T10:04:38.803Z,22.50
2017-08-22T10:07:06.738Z,22.60
2017-08-22T10:09:34.350Z,22.70
2017-08-22T10:12:01.979Z,22.80
2017-08-22T10:14:29.587Z,22.90
2017-08-22T10:17:29.458Z,22.90
2017-08-22T10:19:57.124Z,23.00
2017-08-22T10:22:24.741Z,22.90
2017-08-22T10:24:52.324Z,23.00
2017-08-22T10:27:20.200Z,23.10
2017-08-22T10:29:47.805Z,23.10
2017-08-22T10:32:15.443Z,23.20
2017-08-22T10:34:43.070Z,23.40
2017-08-22T10:37:10.682Z,23.40
2017-08-22T10:39:38.383Z,23.40
2017-08-22T10:42:06.052Z,23.30
2017-08-22T10:44:33.648Z,23.30
2017-08-22T10:47:01.260Z,23.20
2017-08-22T10:49:28.866Z,23.10
2017-08-22T10:51:56.488Z,23.30
2017-08-22T10:54:24.094Z,23.30
2017-08-22T10:56:51.681Z,23.30
2017-08-22T10:59:19.288Z,23.50
2017-08-22T11:01:46.864Z,23.50
2017-08-22T11:04:14.545Z,23.60
2017-08-22T11:06:42.175Z,23.60
2017-08-22T11:09:09.814Z,23.50
2017-08-22T11:11:37.495Z,23.40
2017-08-22T11:14:05.166Z,23.50
2017-08-22T11:16:32.796Z,23.60
2017-08-22T11:19:00.465Z,23.60
2017-08-22T11:21:28.075Z,23.70
2017-08-22T11:23:55.739Z,23.80
2017-08-22T11:26:23.761Z,23.80
2017-08-22T11:28:51.423Z,23.90
2017-08-22T11:31:19.022Z,23.90
2017-08-22T11:33:46.701Z,24.10
2017-08-22T11:36:14.324Z,23.90
2017-08-22T11:38:41.940Z,23.90
2017-08-22T11:41:09.613Z,24.10
2017-08-22T11:43:37.293Z,24.30
2017-08-22T11:46:04.943Z,24.30
2017-08-22T11:48:32.600Z,24.30
2017-08-22T11:51:00.211Z,24.30
2017-08-22T11:53:27.873Z,24.40
2017-08-22T11:55:55.474Z,24.40
2017-08-22T11:58:23.133Z,24.40
2017-08-22T12:00:50.748Z,24.50
2017-08-22T12:03:18.387Z,24.50
2017-08-22T12:05:46.001Z,24.60
2017-08-22T12:08:13.657Z,24.70
2017-08-22T12:10:41.272Z,24.70
2017-08-22T12:13:08.995Z,24.60
2017-08-22T12:15:36.618Z,24.50
2017-08-22T12:18:04.261Z,24.60
2017-08-22T12:20:31.911Z,24.70
2017-08-22T12:22:59.555Z,24.70
2017-08-22T12:25:27.206Z,24.70
2017-08-22T12:27:54.820Z,24.80
2017-08-22T12:30:22.398Z,24.80
2017-08-22T12:32:49.949Z,24.90
2017-08-22T12:35:17.519Z,24.90
2017-08-22T12:37:45.134Z,25.00
2017-08-22T12:40:12.749Z,25.00
2017-08-22T12:42:40.370Z,25.20
2017-08-22T12:45:07.953Z,25.20
2017-08-22T12:47:35.512Z,25.40
2017-08-22T12:50:03.199Z,25.40
2017-08-22T12:52:30.822Z,25.30
2017-08-22T12:54:58.493Z,25.30
2017-08-22T12:57:26.046Z,25.40
2017-08-22T12:59:53.665Z,25.30
2017-08-22T13:02:21.252Z,25.30
2017-08-22T13:04:48.911Z,25.30
2017-08-22T13:07:16.440Z,25.30
2017-08-22T13:09:44.078Z,25.50
2017-08-22T13:12:11.697Z,25.60
2017-08-22T13:14:39.258Z,25.70
2017-08-22T13:17:06.905Z,25.50
2017-08-22T13:19:34.458Z,25.50
2017-08-22T13:22:02.046Z,25.70
2017-08-22T13:24:29.621Z,25.60
2017-08-22T13:26:57.199Z,25.60
2017-08-22T13:29:24.737Z,25.60
2017-08-22T13:31:52.330Z,25.60
2017-08-22T13:34:19.907Z,25.70
2017-08-22T13:36:47.488Z,25.90
2017-08-22T13:39:15.053Z,26.00
2017-08-22T13:41:42.672Z,25.90
2017-08-22T13:44:10.309Z,25.80
2017-08-22T13:46:37.954Z,25.70
2017-08-22T13:49:05.631Z,25.60
2017-08-22T13:51:33.276Z,25.70
2017-08-22T13:54:00.934Z,25.90
2017-08-22T13:56:28.535Z,26.00
2017-08-22T13:58:56.198Z,26.20
2017-08-22T14:01:24.164Z,26.20
2017-08-22T14:03:51.830Z,26.30
2017-08-22T14:06:19.437Z,26.30
2017-08-22T14:08:47.124Z,26.40
2017-08-22T14:11:14.732Z,26.50
2017-08-22T14:13:42.363Z,26.50
2017-08-22T14:16:09.971Z,26.60
2017-08-22T14:18:37.631Z,26.60
2017-08-22T14:21:05.287Z,26.70
2017-08-22T14:23:32.946Z,26.80
2017-08-22T14:26:00.633Z,26.90
2017-08-22T14:28:28.341Z,27.00
2017-08-22T14:30:55.946Z,27.10
2017-08-22T14:33:23.620Z,27.20
2017-08-22T14:35:51.232Z,27.20
2017-08-22T14:38:18.909Z,27.20
2017-08-22T14:40:46.535Z,27.30
2017-08-22T14:43:14.118Z,27.30
2017-08-22T14:45:41.756Z,27.40
2017-08-22T14:48:09.378Z,27.10
2017-08-22T14:50:37.017Z,27.20
2017-08-22T14:53:04.682Z,27.40
2017-08-22T14:55:32.270Z,27.50
2017-08-22T14:57:59.844Z,27.80
2017-08-22T15:00:27.420Z,28.30
2017-08-22T15:02:55.100Z,29.00
2017-08-22T15:05:22.730Z,29.60
2017-08-22T15:07:50.317Z,30.20
2017-08-22T15:10:17.892Z,30.60
2017-08-22T15:12:45.553Z,30.90
2017-08-22T15:15:13.164Z,31.20
2017-08-22T15:17:40.744Z,31.50
2017-08-22T15:20:08.316Z,31.50
2017-08-22T15:22:36.021Z,31.50
2017-08-22T15:25:03.574Z,31.40
2017-08-22T15:27:31.206Z,31.10
2017-08-22T15:29:58.814Z,30.90
2017-08-22T15:32:26.438Z,30.70
2017-08-22T15:34:54.090Z,30.40
2017-08-22T15:37:21.696Z,29.90
2017-08-22T15:39:49.380Z,28.90
2017-08-22T15:42:17.007Z,28.40
2017-08-22T15:44:44.785Z,27.80
2017-08-22T15:47:12.440Z,27.30
2017-08-22T15:49:40.122Z,27.00
2017-08-22T15:52:07.689Z,26.70
2017-08-22T15:54:35.415Z,26.40
2017-08-22T15:57:03.804Z,25.70
2017-08-22T15:59:31.400Z,25.70
2017-08-22T16:01:59.570Z,25.40
2017-08-22T16:04:27.146Z,25.10
2017-08-22T16:06:54.760Z,24.90
2017-08-22T16:09:22.331Z,24.60
2017-08-22T16:11:49.863Z,24.40
2017-08-22T16:14:17.451Z,24.00
2017-08-22T16:16:45.070Z,23.80
2017-08-22T16:19:12.736Z,23.70
2017-08-22T16:21:40.281Z,23.50
2017-08-22T16:24:07.962Z,23.40
2017-08-22T16:26:35.593Z,23.30
2017-08-22T16:29:03.313Z,23.20
2017-08-22T16:31:30.902Z,23.00
2017-08-22T16:33:58.437Z,22.90
2017-08-22T16:36:26.014Z,22.80
2017-08-22T16:38:53.696Z,22.70
2017-08-22T16:41:21.306Z,22.60
2017-08-22T16:43:49.062Z,22.70
2017-08-22T16:46:16.615Z,22.60
2017-08-22T16:48:44.306Z,22.50
2017-08-22T16:51:11.937Z,22.40
2017-08-22T16:53:39.505Z,22.30
2017-08-22T16:56:07.164Z,22.10
2017-08-22T16:58:34.819Z,22.10
2017-08-22T17:01:02.479Z,21.90
2017-08-22T17:03:30.086Z,21.80
2017-08-22T17:05:57.746Z,21.80
2017-08-22T17:08:25.293Z,21.70
2017-08-22T17:10:53.205Z,21.70
2017-08-22T17:13:21.733Z,21.60
2017-08-22T17:15:49.674Z,21.40
2017-08-22T17:18:17.212Z,21.30
2017-08-22T17:20:44.841Z,21.30
2017-08-22T17:23:12.517Z,21.10
2017-08-22T17:25:40.138Z,21.10
2017-08-22T17:28:07.716Z,21.10
2017-08-22T17:30:35.360Z,21.00
2017-08-22T17:33:03.044Z,20.80
2017-08-22T17:35:30.665Z,20.90
2017-08-22T17:37:58.257Z,20.70
2017-08-22T17:40:25.793Z,20.60
2017-08-22T17:42:53.461Z,20.50
2017-08-22T17:45:21.051Z,20.40
2017-08-22T17:47:48.711Z,20.30
2017-08-22T17:50:16.336Z,20.20
2017-08-22T17:52:44.004Z,20.20
2017-08-22T17:55:11.600Z,20.20
2017-08-22T17:57:39.235Z,20.10
2017-08-22T18:00:06.873Z,20.20
2017-08-22T18:02:34.617Z,20.00
2017-08-22T18:05:02.215Z,19.90
2017-08-22T18:07:29.896Z,19.90
2017-08-22T18:09:57.465Z,19.80
2017-08-22T18:12:25.110Z,19.90
2017-08-22T18:14:52.699Z,19.90
2017-08-22T18:17:20.512Z,19.80
2017-08-22T18:19:48.059Z,19.80
2017-08-22T18:22:15.723Z,19.60
2017-08-22T18:24:43.377Z,19.60
2017-08-22T18:27:11.005Z,19.50
2017-08-22T18:29:38.633Z,19.60
2017-08-22T18:32:06.326Z,19.50
2017-08-22T18:34:33.945Z,19.40
2017-08-22T18:37:01.566Z,19.20
2017-08-22T18:39:29.130Z,19.20
2017-08-22T18:41:56.730Z,19.20
2017-08-22T18:44:24.608Z,19.10
2017-08-22T18:46:52.208Z,19.00
2017-08-22T18:49:19.889Z,18.90
2017-08-22T18:51:47.485Z,18.80
2017-08-22T18:54:15.139Z,18.70
2017-08-22T18:56:42.753Z,18.70
2017-08-22T18:59:10.413Z,18.60
2017-08-22T19:01:38.032Z,18.50
2017-08-22T19:04:05.746Z,18.50
2017-08-22T19:06:33.388Z,18.50
2017-08-22T19:09:00.991Z,18.40
2017-08-22T19:11:28.625Z,18.50
2017-08-22T19:13:56.161Z,18.40
2017-08-22T19:16:23.816Z,18.30
2017-08-22T19:18:51.437Z,18.40
2017-08-22T19:21:19.030Z,18.30
2017-08-22T19:23:46.643Z,18.20
2017-08-22T19:26:14.305Z,18.10
2017-08-22T19:28:41.850Z,18.10
2017-08-22T19:31:09.528Z,18.00
2017-08-22T19:33:37.158Z,18.00
2017-08-22T19:36:04.869Z,18.00
2017-08-22T19:38:32.482Z,18.00
2017-08-22T19:41:00.152Z,18.00
2017-08-22T19:43:27.774Z,18.10
2017-08-22T19:45:55.439Z,18.00
2017-08-22T19:48:22.990Z,17.90
2017-08-22T19:50:50.599Z,17.80
2017-08-22T19:53:18.191Z,17.80
2017-08-22T19:55:45.801Z,17.80
2017-08-22T19:58:13.403Z,17.70
2017-08-22T20:00:41.064Z,17.60
2017-08-22T20:03:08.695Z,17.60
2017-08-22T20:05:36.350Z,17.60
2017-08-22T20:08:04.066Z,17.60
2017-08-22T20:10:31.679Z,17.70
2017-08-22T20:12:59.345Z,17.60
2017-08-22T20:15:26.960Z,17.70
2017-08-22T20:17:54.640Z,17.60
2017-08-22T20:20:22.284Z,17.50
2017-08-22T20:22:50.932Z,17.50
2017-08-22T20:25:18.464Z,17.50
2017-08-22T20:27:46.124Z,17.40
2017-08-22T20:30:13.741Z,17.20
2017-08-22T20:32:41.367Z,17.30
2017-08-22T20:35:08.967Z,17.30
2017-08-22T20:37:37.070Z,17.40
2017-08-22T20:40:04.652Z,17.30
2017-08-22T20:42:32.276Z,17.20
2017-08-22T20:44:59.838Z,17.20
2017-08-22T20:47:27.405Z,17.10
2017-08-22T20:49:55.013Z,17.10
2017-08-22T20:52:22.645Z,17.20
2017-08-22T20:54:50.378Z,17.10
2017-08-22T20:57:17.985Z,17.30
2017-08-22T20:59:45.684Z,17.20
2017-08-22T21:02:13.361Z,17.20
2017-08-22T21:04:40.976Z,17.30
2017-08-22T21:07:08.608Z,17.30
2017-08-22T21:09:36.287Z,17.40
2017-08-22T21:12:03.923Z,17.30
2017-08-22T21:14:31.578Z,17.30
2017-08-22T21:16:59.190Z,17.30
2017-08-22T21:19:26.871Z,17.40
2017-08-22T21:21:54.863Z,17.50
2017-08-22T21:24:22.537Z,17.40
2017-08-22T21:26:50.207Z,17.40
2017-08-22T21:29:17.882Z,17.30
2017-08-22T21:31:45.445Z,17.10
2017-08-22T21:34:13.108Z,17.00
2017-08-22T21:36:40.712Z,17.00
2017-08-22T21:39:08.379Z,17.00
2017-08-22T21:41:36.013Z,17.00
2017-08-22T21:44:03.690Z,17.00
2017-08-22T21:46:31.296Z,17.00
2017-08-22T21:48:58.960Z,16.90
2017-08-22T21:51:26.608Z,17.00
2017-08-22T21:53:54.220Z,17.00
2017-08-22T21:56:21.850Z,17.00
2017-08-22T21:58:49.706Z,17.00
2017-08-22T22:01:17.306Z,17.00
2017-08-22T22:03:44.992Z,17.00
2017-08-22T22:06:12.620Z,16.90
2017-08-22T22:08:40.449Z,16.90
2017-08-22T22:11:08.075Z,16.80
2017-08-22T22:13:35.769Z,16.70
2017-08-22T22:16:03.450Z,16.70
2017-08-22T22:18:31.271Z,16.70
2017-08-22T22:20:58.993Z,16.70
2017-08-22T22:23:26.719Z,16.70
2017-08-22T22:25:54.431Z,16.60
2017-08-22T22:28:22.042Z,16.60
2017-08-22T22:30:49.649Z,16.60
2017-08-22T22:33:17.213Z,16.70
2017-08-22T22:35:44.796Z,16.60
2017-08-22T22:38:12.391Z,16.60
2017-08-22T22:40:39.969Z,16.60
2017-08-22T22:43:07.552Z,16.70
2017-08-22T22:45:35.209Z,16.70
2017-08-22T22:48:02.791Z,16.70
2017-08-22T22:50:30.399Z,16.60
2017-08-22T22:52:57.948Z,16.60
2017-08-22T22:55:25.495Z,16.50
2017-08-22T22:57:53.101Z,16.50
2017-08-22T23:00:20.637Z,16.50
2017-08-22T23:02:48.234Z,16.40
2017-08-22T23:05:15.798Z,16.30
2017-08-22T23:07:43.373Z,16.30
2017-08-22T23:10:10.916Z,16.40
2017-08-22T23:12:38.513Z,16.50
2017-08-22T23:15:06.065Z,16.50
2017-08-22T23:17:33.700Z,16.60
2017-08-22T23:20:01.233Z,16.50
2017-08-22T23:22:28.860Z,16.50
2017-08-22T23:24:56.417Z,16.50
2017-08-22T23:27:23.978Z,16.40
2017-08-22T23:29:51.591Z,16.30
2017-08-22T23:32:19.132Z,16.40
2017-08-22T23:34:46.705Z,16.50
2017-08-22T23:37:14.328Z,16.40
2017-08-22T23:39:41.947Z,16.40
2017-08-22T23:42:09.536Z,16.50
2017-08-22T23:44:37.160Z,16.40
2017-08-22T23:47:04.730Z,16.30
2017-08-22T23:49:32.355Z,16.30
2017-08-22T23:51:59.948Z,16.20
2017-08-22T23:54:27.545Z,16.20
2017-08-22T23:56:55.148Z,16.20
2017-08-22T23:59:22.710Z,16.20
